createdAt,value
2023-03-12T00:03:45.207Z,100.00
2023-03-12T00:07:48.154Z,100.00
2023-03-12T00:11:52.417Z,100.00
2023-03-12T00:15:55.409Z,100.00
2023-03-12T00:19:58.623Z,100.00
2023-03-12T00:24:01.921Z,100.00
2023-03-12T00:28:06.888Z,100.00
2023-03-12T00:32:12.803Z,100.00
2023-03-12T00:36:15.616Z,100.00
2023-03-12T00:40:18.857Z,100.00
2023-03-12T00:44:23.297Z,100.00
2023-03-12T00:48:26.625Z,100.00
2023-03-12T00:52:29.540Z,100.00
2023-03-12T00:56:32.473Z,100.00
2023-03-12T01:00:37.056Z,100.00
2023-03-12T01:04:39.783Z,100.00
2023-03-12T01:08:42.682Z,100.00
2023-03-12T01:12:45.748Z,100.00
2023-03-12T01:16:52.349Z,100.00
2023-03-12T01:20:55.643Z,99.95
2023-03-12T01:24:58.541Z,97.93
2023-03-12T01:29:01.444Z,95.67
2023-03-12T01:33:09.087Z,95.08
2023-03-12T01:37:12.716Z,94.58
2023-03-12T01:41:18.415Z,93.85
2023-03-12T01:46:00.269Z,94.42
2023-03-12T01:50:05.964Z,93.81
2023-03-12T01:54:13.369Z,92.69
2023-03-12T01:58:17.192Z,91.94
2023-03-12T02:02:27.235Z,92.23
2023-03-12T02:06:38.691Z,92.08
2023-03-12T02:10:42.072Z,91.80
2023-03-12T02:14:52.944Z,91.40
2023-03-12T02:19:02.228Z,90.72
2023-03-12T02:23:10.359Z,89.87
2023-03-12T02:27:14.646Z,89.88
2023-03-12T02:31:21.229Z,89.86
2023-03-12T02:35:24.655Z,89.03
2023-03-12T02:39:28.343Z,89.07
2023-03-12T02:43:33.223Z,89.12
2023-03-12T02:47:36.385Z,89.53
2023-03-12T02:51:39.421Z,89.73
2023-03-12T02:55:42.249Z,90.03
2023-03-12T02:59:46.896Z,91.87
2023-03-12T03:03:50.285Z,92.36
2023-03-12T03:07:53.454Z,92.91
2023-03-12T03:11:56.403Z,91.94
2023-03-12T03:16:02.177Z,92.49
2023-03-12T03:20:07.771Z,91.32
2023-03-12T03:24:11.610Z,90.51
2023-03-12T03:28:14.585Z,89.77
2023-03-12T03:32:19.053Z,88.83
2023-03-12T03:36:23.428Z,88.54
2023-03-12T03:40:26.336Z,88.33
2023-03-12T03:44:29.618Z,88.14
2023-03-12T03:48:34.424Z,88.39
2023-03-12T03:52:37.709Z,88.55
2023-03-12T03:56:42.312Z,88.29
2023-03-12T04:00:46.558Z,88.34
2023-03-12T04:04:51.471Z,88.00
2023-03-12T04:08:54.362Z,88.60
2023-03-12T04:12:57.481Z,88.92
2023-03-12T04:17:00.657Z,88.58
2023-03-12T04:21:06.053Z,87.59
2023-03-12T04:25:09.388Z,88.31
2023-03-12T04:29:12.464Z,88.35
2023-03-12T04:33:15.375Z,87.95
2023-03-12T04:37:20.097Z,88.33
2023-03-12T04:41:23.177Z,88.40
2023-03-12T04:45:26.170Z,89.03
2023-03-12T04:49:29.351Z,88.24
2023-03-12T04:53:34.239Z,88.21
2023-03-12T04:57:37.507Z,89.19
2023-03-12T05:01:40.732Z,87.88
2023-03-12T05:05:43.805Z,88.63
2023-03-12T05:09:47.966Z,88.83
2023-03-12T05:13:51.131Z,88.00
2023-03-12T05:17:54.966Z,88.06
2023-03-12T05:21:57.637Z,88.50
2023-03-12T05:26:01.953Z,88.28
2023-03-12T05:30:05.191Z,88.30
2023-03-12T05:34:08.251Z,87.36
2023-03-12T05:38:11.341Z,87.54
2023-03-12T05:42:16.960Z,86.26
2023-03-12T05:46:19.785Z,86.13
2023-03-12T05:50:22.710Z,86.40
2023-03-12T05:54:25.689Z,85.68
2023-03-12T05:58:31.484Z,85.18
2023-03-12T06:02:34.417Z,84.49
2023-03-12T06:06:38.826Z,84.26
2023-03-12T06:10:42.269Z,84.16
2023-03-12T06:14:46.679Z,83.81
2023-03-12T06:18:50.015Z,84.22
2023-03-12T06:22:53.077Z,84.45
2023-03-12T06:26:56.422Z,85.30
2023-03-12T06:31:00.871Z,85.37
2023-03-12T06:35:04.826Z,85.41
2023-03-12T06:39:09.263Z,83.82
2023-03-12T06:43:12.569Z,84.91
2023-03-12T06:47:17.806Z,86.20
2023-03-12T06:51:21.248Z,88.52
2023-03-12T06:55:26.272Z,86.46
2023-03-12T06:59:29.539Z,82.95
2023-03-12T07:03:34.423Z,82.07
2023-03-12T07:07:37.360Z,79.19
2023-03-12T07:11:40.394Z,69.15
2023-03-12T07:15:45.327Z,54.17
2023-03-12T07:19:50.046Z,50.03
2023-03-12T07:23:53.719Z,52.31
2023-03-12T07:27:56.023Z,54.32
2023-03-12T07:31:59.313Z,59.43
2023-03-12T07:36:04.453Z,62.42
2023-03-12T07:40:10.898Z,66.48
2023-03-12T07:44:14.449Z,66.23
2023-03-12T07:48:19.973Z,67.17
2023-03-12T07:52:24.513Z,66.58
2023-03-12T07:56:27.623Z,57.00
2023-03-12T08:00:31.629Z,55.23
2023-03-12T08:04:38.574Z,53.62
2023-03-12T08:08:43.104Z,57.93
2023-03-12T08:12:46.632Z,56.55
2023-03-12T08:16:49.956Z,51.87
2023-03-12T08:20:53.459Z,51.04
2023-03-12T08:25:00.418Z,50.62
2023-03-12T08:29:03.596Z,51.72
2023-03-12T08:33:06.122Z,51.04
2023-03-12T08:37:09.175Z,54.56
2023-03-12T08:41:14.235Z,58.15
2023-03-12T08:45:17.839Z,61.00
2023-03-12T08:49:23.902Z,56.79
2023-03-12T08:53:27.798Z,51.41
2023-03-12T08:57:32.845Z,56.01
2023-03-12T09:01:36.049Z,60.42
2023-03-12T09:05:38.797Z,63.29
2023-03-12T09:09:41.952Z,61.48
2023-03-12T09:14:22.243Z,58.85
2023-03-12T09:18:11.143Z,52.96
2023-03-12T09:22:14.043Z,47.69
2023-03-12T09:26:19.161Z,45.08
2023-03-12T09:30:26.690Z,48.50
2023-03-12T09:34:30.079Z,50.06
2023-03-12T09:38:35.648Z,53.73
2023-03-12T09:42:47.543Z,53.91
2023-03-12T09:46:56.972Z,50.14
2023-03-12T09:51:04.432Z,47.89
2023-03-12T09:55:15.121Z,48.96
2023-03-12T09:59:18.336Z,53.71
2023-03-12T10:03:36.923Z,53.70
2023-03-12T10:07:48.684Z,54.91
2023-03-12T10:11:58.825Z,54.91
2023-03-12T10:16:13.459Z,54.83
2023-03-12T10:20:51.888Z,56.48
2023-03-12T10:25:02.398Z,56.37
2023-03-12T10:29:12.740Z,56.61
2023-03-12T10:33:18.916Z,54.38
2023-03-12T10:37:26.995Z,54.20
2023-03-12T10:41:34.616Z,52.52
2023-03-12T10:45:43.638Z,52.92
2023-03-12T10:49:50.691Z,52.67
2023-03-12T10:53:55.124Z,52.58
2023-03-12T10:57:59.074Z,52.90
2023-03-12T11:02:03.434Z,50.07
2023-03-12T11:06:10.535Z,49.25
2023-03-12T11:10:21.625Z,49.78
2023-03-12T11:14:26.558Z,49.21
2023-03-12T11:18:33.815Z,50.30
2023-03-12T11:22:36.878Z,49.66
2023-03-12T11:26:50.971Z,47.92
2023-03-12T11:30:57.928Z,47.32
2023-03-12T11:35:01.917Z,46.56
2023-03-12T11:39:16.679Z,47.62
2023-03-12T11:43:44.450Z,48.26
2023-03-12T11:47:57.112Z,47.79
2023-03-12T11:52:06.997Z,45.43
2023-03-12T11:56:19.864Z,44.63
2023-03-12T12:00:36.871Z,44.75
2023-03-12T12:04:54.472Z,45.54
2023-03-12T12:09:11.923Z,46.45
2023-03-12T12:13:23.988Z,45.54
2023-03-12T12:17:43.118Z,43.78
2023-03-12T12:22:00.985Z,46.57
2023-03-12T12:26:11.377Z,45.85
2023-03-12T12:30:24.054Z,46.83
2023-03-12T12:35:00.548Z,47.06
2023-03-12T12:39:11.447Z,47.90
2023-03-12T12:43:28.220Z,47.35
2023-03-12T12:47:41.440Z,47.40
2023-03-12T12:51:50.619Z,46.47
2023-03-12T12:56:03.109Z,46.29
2023-03-12T13:00:21.008Z,48.78
2023-03-12T13:04:28.532Z,49.10
2023-03-12T13:08:58.707Z,48.35
2023-03-12T13:13:05.665Z,46.44
2023-03-12T13:17:27.943Z,46.98
2023-03-12T13:21:37.539Z,47.69
2023-03-12T13:25:58.119Z,49.27
2023-03-12T13:30:43.534Z,51.38
2023-03-12T13:34:48.767Z,50.72
2023-03-12T13:38:58.104Z,50.03
2023-03-12T13:43:07.074Z,50.83
2023-03-12T13:47:24.345Z,51.61
2023-03-12T13:51:29.334Z,52.77
2023-03-12T13:55:33.417Z,54.03
2023-03-12T13:59:36.808Z,52.93
2023-03-12T14:03:42.887Z,54.25
2023-03-12T14:08:07.656Z,54.26
2023-03-12T14:12:17.855Z,54.52
2023-03-12T14:16:32.460Z,55.57
2023-03-12T14:20:39.813Z,53.77
2023-03-12T14:24:51.899Z,53.30
2023-03-12T14:29:01.009Z,52.67
2023-03-12T14:33:05.581Z,51.13
2023-03-12T14:37:16.735Z,50.12
2023-03-12T14:41:25.729Z,50.44
2023-03-12T14:45:30.351Z,49.18
2023-03-12T14:49:33.814Z,50.39
2023-03-12T14:53:39.765Z,50.25
2023-03-12T14:57:44.444Z,51.86
2023-03-12T15:01:48.147Z,51.40
2023-03-12T15:05:53.427Z,52.83
2023-03-12T15:09:58.427Z,52.90
2023-03-12T15:14:09.377Z,54.01
2023-03-12T15:18:17.450Z,53.10
2023-03-12T15:22:24.881Z,53.44
2023-03-12T15:26:30.811Z,54.58
2023-03-12T15:30:36.987Z,55.48
2023-03-12T15:34:40.805Z,54.81
2023-03-12T15:38:47.539Z,55.89
2023-03-12T15:42:51.147Z,56.29
2023-03-12T15:47:04.538Z,56.42
2023-03-12T15:51:17.512Z,56.94
2023-03-12T15:55:27.165Z,56.96
2023-03-12T15:59:30.831Z,57.86
2023-03-12T16:03:35.446Z,58.48
2023-03-12T16:07:39.117Z,58.77
2023-03-12T16:11:41.765Z,60.55
2023-03-12T16:15:47.461Z,60.39
2023-03-12T16:19:52.201Z,60.99
2023-03-12T16:23:56.543Z,62.18
2023-03-12T16:28:03.365Z,62.28
2023-03-12T16:32:12.897Z,61.68
2023-03-12T16:36:19.379Z,61.76
2023-03-12T16:40:32.946Z,63.81
2023-03-12T16:44:36.816Z,63.46
2023-03-12T16:48:40.017Z,64.75
2023-03-12T16:52:47.059Z,65.89
2023-03-12T16:56:51.119Z,66.75
2023-03-12T17:00:55.725Z,68.27
2023-03-12T17:04:59.705Z,69.20
2023-03-12T17:09:06.905Z,70.51
2023-03-12T17:13:19.153Z,70.87
2023-03-12T17:17:23.445Z,71.13
2023-03-12T17:21:26.339Z,72.85
2023-03-12T17:25:32.724Z,73.23
2023-03-12T17:29:35.630Z,73.07
2023-03-12T17:33:38.763Z,74.07
2023-03-12T17:37:41.896Z,73.87
2023-03-12T17:41:46.667Z,74.96
2023-03-12T17:45:49.898Z,75.33
2023-03-12T17:49:52.984Z,75.39
2023-03-12T17:53:55.965Z,77.14
2023-03-12T17:58:01.582Z,76.82
2023-03-12T18:02:04.331Z,77.40
2023-03-12T18:06:07.980Z,77.15
2023-03-12T18:10:13.524Z,77.21
2023-03-12T18:14:20.893Z,77.66
2023-03-12T18:18:25.005Z,79.00
2023-03-12T18:22:28.225Z,78.85
2023-03-12T18:26:31.210Z,79.01
2023-03-12T18:30:36.007Z,79.42
2023-03-12T18:34:42.521Z,78.98
2023-03-12T18:38:45.518Z,78.19
2023-03-12T18:42:48.138Z,77.44
2023-03-12T18:46:54.212Z,77.62
2023-03-12T18:50:57.320Z,78.26
2023-03-12T18:55:00.149Z,78.92
2023-03-12T18:59:03.035Z,78.74
2023-03-12T19:03:07.395Z,79.02
2023-03-12T19:07:10.799Z,79.63
2023-03-12T19:11:18.258Z,79.91
2023-03-12T19:15:22.246Z,80.04
2023-03-12T19:19:30.603Z,80.24
2023-03-12T19:23:33.536Z,81.07
2023-03-12T19:27:35.989Z,81.25
2023-03-12T19:31:38.877Z,81.13
2023-03-12T19:35:43.622Z,81.92
2023-03-12T19:39:46.705Z,81.47
2023-03-12T19:43:51.062Z,82.39
2023-03-12T19:47:56.232Z,81.42
2023-03-12T19:52:00.551Z,81.58
2023-03-12T19:56:03.582Z,81.34
2023-03-12T20:00:10.126Z,82.03
2023-03-12T20:04:13.205Z,83.04
2023-03-12T20:08:21.119Z,83.79
2023-03-12T20:12:25.082Z,84.31
2023-03-12T20:16:30.608Z,85.68
2023-03-12T20:20:36.062Z,87.33
2023-03-12T20:24:40.315Z,87.71
2023-03-12T20:28:43.634Z,88.40
2023-03-12T20:32:46.803Z,88.08
2023-03-12T20:36:49.800Z,89.54
2023-03-12T20:40:54.758Z,88.76
2023-03-12T20:44:57.594Z,89.57
2023-03-12T20:49:00.761Z,88.78
2023-03-12T20:53:03.846Z,87.74
2023-03-12T20:57:08.102Z,86.73
2023-03-12T21:01:12.322Z,88.07
2023-03-12T21:05:15.751Z,88.54
2023-03-12T21:09:19.264Z,89.18
2023-03-12T21:13:24.957Z,88.67
2023-03-12T21:17:28.495Z,88.37
2023-03-12T21:21:31.389Z,88.77
2023-03-12T21:25:35.892Z,88.13
2023-03-12T21:29:40.643Z,87.71
2023-03-12T21:33:43.766Z,87.27
2023-03-12T21:37:46.831Z,87.63
2023-03-12T21:41:49.960Z,87.48
2023-03-12T21:45:54.399Z,87.47
2023-03-12T21:49:57.431Z,87.49
2023-03-12T21:54:00.324Z,87.76
2023-03-12T21:58:03.069Z,87.17
2023-03-12T22:02:07.415Z,88.61
2023-03-12T22:06:11.399Z,88.04
2023-03-12T22:10:15.746Z,88.33
2023-03-12T22:14:18.702Z,87.31
2023-03-12T22:18:23.150Z,87.42
2023-03-12T22:22:26.310Z,86.51
2023-03-12T22:26:29.634Z,85.83
2023-03-12T22:30:32.845Z,85.83
2023-03-12T22:34:37.776Z,85.09
2023-03-12T22:38:41.516Z,84.01
2023-03-12T22:42:50.684Z,84.22
2023-03-12T22:46:53.414Z,83.25
2023-03-12T22:50:57.659Z,84.04
2023-03-12T22:55:00.558Z,84.11
2023-03-12T22:59:03.250Z,82.82
2023-03-12T23:03:05.825Z,82.95
2023-03-12T23:07:14.622Z,82.37
2023-03-12T23:11:21.019Z,82.18
2023-03-12T23:15:29.115Z,81.88
2023-03-12T23:19:38.346Z,81.73
2023-03-12T23:23:45.118Z,80.97
2023-03-12T23:27:48.087Z,80.21
2023-03-12T23:31:51.224Z,80.26
2023-03-12T23:35:59.016Z,78.85
2023-03-12T23:40:06.652Z,76.81
2023-03-12T23:44:09.688Z,77.47
2023-03-12T23:48:12.690Z,76.93
2023-03-12T23:52:15.829Z,76.24
2023-03-12T23:56:21.649Z,76.75
